Terminal Aerodrome Forecast
Issued by NWS Atlanta, GA

Home | Current Version | Previous Version | Text Only | Print | Product List | Glossary On
Versions: 1 2 3 4 5 6 7 8 9 10 11 12 13 14 15
000
FTUS42 KFFC 211346 AAA
TAFCSG
TAF AMD
KCSG 211346Z 2114/2212 09005KT P6SM SKC
     FM211600 12006KT P6SM SCT040
     FM220300 00000KT P6SM SCT250
     FM221000 18003KT P6SM SCT080=

USA.gov is the U.S. government's official web portal to all federal, state and local government web resources and services.